createdAt,value
2022-09-07T00:00:08.338Z,599.8
2022-09-07T00:01:10.810Z,599.8
2022-09-07T00:02:12.751Z,599.6
2022-09-07T00:03:16.017Z,599.8
2022-09-07T00:04:19.027Z,599.6
2022-09-07T00:05:21.247Z,599.4
2022-09-07T00:06:23.727Z,599
2022-09-07T00:07:25.924Z,599.5
2022-09-07T00:08:29.010Z,599.4
2022-09-07T00:09:31.554Z,599.2
2022-09-07T00:10:34.017Z,599.6
2022-09-07T00:11:36.498Z,599.6
2022-09-07T00:12:38.971Z,599.5
2022-09-07T00:13:41.198Z,599.4
2022-09-07T00:14:43.101Z,599.4
2022-09-07T00:15:45.662Z,599.1
2022-09-07T00:16:48.149Z,599.3
2022-09-07T00:17:50.617Z,599.6
2022-09-07T00:18:52.793Z,599.6
2022-09-07T00:19:55.278Z,599.9
2022-09-07T00:20:57.454Z,599.7
2022-09-07T00:21:59.661Z,599.9
2022-09-07T00:23:02.125Z,599.7
2022-09-07T00:24:04.339Z,599.9
2022-09-07T00:25:06.540Z,600.1
2022-09-07T00:26:08.756Z,599.9
2022-09-07T00:27:11.225Z,599.8
2022-09-07T00:28:13.705Z,599.6
2022-09-07T00:29:16.179Z,599.9
2022-09-07T00:30:18.678Z,600
2022-09-07T00:31:21.648Z,599.8
2022-09-07T00:32:24.136Z,600.2
2022-09-07T00:33:26.348Z,599.9
2022-09-07T00:34:28.266Z,600.1
2022-09-07T00:35:30.732Z,599.9
2022-09-07T00:36:32.949Z,600
2022-09-07T00:37:35.425Z,599.9
2022-09-07T00:38:37.630Z,599.6
2022-09-07T00:39:40.241Z,599.7
2022-09-07T00:40:42.765Z,599.4
2022-09-07T00:41:45.246Z,599.2
2022-09-07T00:42:47.726Z,599.1
2022-09-07T00:43:49.908Z,599.4
2022-09-07T00:44:52.384Z,599.3
2022-09-07T00:45:54.875Z,598.8
2022-09-07T00:46:57.508Z,598.9
2022-09-07T00:48:00.022Z,599
2022-09-07T00:49:02.198Z,598.6
2022-09-07T00:50:04.409Z,599
2022-09-07T00:51:06.606Z,599.4
2022-09-07T00:52:08.797Z,599.3
2022-09-07T00:53:11.272Z,599.1
2022-09-07T00:54:13.741Z,599
2022-09-07T00:55:15.932Z,598.9
2022-09-07T00:56:18.408Z,598.7
2022-09-07T00:57:20.605Z,598.9
2022-09-07T00:58:23.076Z,598.7
2022-09-07T00:59:25.632Z,598.9
2022-09-07T01:00:27.834Z,598.7
2022-09-07T01:01:31.027Z,598.6
2022-09-07T01:02:34.616Z,599.2
2022-09-07T01:03:36.604Z,599.1
2022-09-07T01:04:39.078Z,599.3
2022-09-07T01:05:41.264Z,599.3
2022-09-07T01:06:43.743Z,599
2022-09-07T01:07:46.238Z,599.3
2022-09-07T01:08:48.154Z,599.5
2022-09-07T01:09:50.647Z,599.2
2022-09-07T01:10:52.826Z,599.3
2022-09-07T01:11:55.302Z,599.1
2022-09-07T01:12:57.784Z,598.8
2022-09-07T01:14:00.252Z,599.1
2022-09-07T01:15:02.733Z,599.1
2022-09-07T01:16:05.456Z,598.9
2022-09-07T01:17:07.718Z,598.6
2022-09-07T01:18:09.649Z,598.7
2022-09-07T01:19:12.132Z,598.9
2022-09-07T01:20:14.625Z,598.8
2022-09-07T01:21:17.089Z,598.6
2022-09-07T01:22:19.567Z,598.4
2022-09-07T01:23:22.048Z,598.6
2022-09-07T01:24:24.014Z,598.6
2022-09-07T01:25:25.925Z,598.7
2022-09-07T01:26:28.118Z,598.9
2022-09-07T01:27:30.597Z,598.6
2022-09-07T01:28:33.546Z,598.7
2022-09-07T01:29:36.023Z,598.9
2022-09-07T01:30:38.230Z,598.6
2022-09-07T01:31:40.711Z,598.7
2022-09-07T01:32:43.179Z,598.8
2022-09-07T01:33:45.652Z,598.9
2022-09-07T01:34:48.126Z,598.8
2022-09-07T01:35:50.603Z,598.8
2022-09-07T01:36:52.802Z,598.8
2022-09-07T01:39:00.006Z,599.2
2022-09-07T01:40:02.874Z,599.7
2022-09-07T01:41:05.144Z,599.2
2022-09-07T01:42:07.618Z,599.5
2022-09-07T01:43:10.098Z,599.7
2022-09-07T01:44:12.573Z,599.8
2022-09-07T01:45:14.794Z,599.7
2022-09-07T01:46:17.337Z,599.8
2022-09-07T01:47:19.614Z,599.8
2022-09-07T01:48:22.090Z,599.7
2022-09-07T01:49:24.576Z,599.9
2022-09-07T01:50:27.067Z,599.5
2022-09-07T01:51:29.570Z,599.4
2022-09-07T01:52:32.042Z,599.2
2022-09-07T01:53:34.234Z,599.5
2022-09-07T01:54:36.154Z,598.9
2022-09-07T01:55:38.349Z,598.3
2022-09-07T01:56:40.826Z,598.5
2022-09-07T01:57:43.002Z,598.3
2022-09-07T01:58:45.195Z,598.4
2022-09-07T01:59:47.406Z,598
2022-09-07T02:00:49.881Z,598.2
2022-09-07T02:01:52.351Z,598.3
2022-09-07T02:02:55.210Z,598.3
2022-09-07T02:03:57.723Z,598.3
2022-09-07T02:04:59.619Z,598
2022-09-07T02:06:02.112Z,598
2022-09-07T02:07:04.577Z,598.3
2022-09-07T02:08:07.068Z,598.3
2022-09-07T02:09:09.263Z,598.5
2022-09-07T02:10:11.439Z,598.6
2022-09-07T02:11:13.689Z,598.5
2022-09-07T02:12:15.593Z,598.4
2022-09-07T02:13:18.068Z,598.2
2022-09-07T02:14:20.547Z,598.4
2022-09-07T02:15:23.035Z,598.5
2022-09-07T02:16:25.747Z,598
2022-09-07T02:17:27.921Z,598
2022-09-07T02:18:30.339Z,598
2022-09-07T02:19:32.566Z,598
2022-09-07T02:20:34.766Z,598.5
2022-09-07T02:21:37.234Z,598.7
2022-09-07T02:22:39.724Z,598.5
2022-09-07T02:23:41.922Z,599
2022-09-07T02:24:44.447Z,598.7
2022-09-07T02:25:46.927Z,599.1
2022-09-07T02:26:49.108Z,599.3
2022-09-07T02:27:51.581Z,599.3
2022-09-07T02:28:54.050Z,599.9
2022-09-07T02:29:56.517Z,600.4
2022-09-07T02:30:59.340Z,600.6
2022-09-07T02:32:01.844Z,600.6
2022-09-07T02:33:04.322Z,600.5
2022-09-07T02:34:06.803Z,600.9
2022-09-07T02:35:09.272Z,600.5
2022-09-07T02:36:11.762Z,600.4
2022-09-07T02:37:13.957Z,600.4
2022-09-07T02:38:16.171Z,600.4
2022-09-07T02:39:18.369Z,600.4
2022-09-07T02:40:20.845Z,600.5
2022-09-07T02:41:23.316Z,600.6
2022-09-07T02:42:25.509Z,600.5
2022-09-07T02:43:27.705Z,600.9
2022-09-07T02:44:29.624Z,600.7
2022-09-07T02:45:32.104Z,600.5
2022-09-07T02:46:34.985Z,600.6
2022-09-07T02:47:36.913Z,600.8
2022-09-07T02:48:39.380Z,600.8
2022-09-07T02:49:41.858Z,601.1
2022-09-07T02:50:44.076Z,600.9
2022-09-07T02:51:46.564Z,601.1
2022-09-07T02:52:49.093Z,601.1
2022-09-07T02:53:51.293Z,601.3
2022-09-07T02:54:53.772Z,600.9
2022-09-07T02:55:55.975Z,601
2022-09-07T02:56:58.170Z,601
2022-09-07T02:58:00.080Z,600.9
2022-09-07T02:59:02.289Z,600.9
2022-09-07T03:00:04.483Z,600.9
2022-09-07T03:01:07.038Z,600.7
2022-09-07T03:02:09.538Z,600.8
2022-09-07T03:03:12.018Z,601.1
2022-09-07T03:04:14.487Z,601.4
2022-09-07T03:05:16.978Z,601.1
2022-09-07T03:06:19.168Z,601.7
2022-09-07T03:07:21.639Z,601.5
2022-09-07T03:08:24.223Z,601.5
2022-09-07T03:09:26.716Z,601.1
2022-09-07T03:10:29.259Z,600.9
2022-09-07T03:11:31.828Z,600.9
2022-09-07T03:12:34.311Z,600
2022-09-07T03:13:36.231Z,599.9
2022-09-07T03:14:38.723Z,600
2022-09-07T03:15:41.674Z,599.9
2022-09-07T03:16:44.186Z,600.5
2022-09-07T03:17:46.660Z,600.6
2022-09-07T03:18:49.229Z,600.2
2022-09-07T03:19:51.711Z,600.6
2022-09-07T03:20:53.902Z,600.6
2022-09-07T03:21:56.385Z,600.3
2022-09-07T03:22:58.850Z,600.5
2022-09-07T03:24:01.071Z,600.2
2022-09-07T03:25:03.549Z,600.2
2022-09-07T03:26:06.028Z,600.2
2022-09-07T03:27:08.224Z,600.4
2022-09-07T03:28:10.447Z,600.3
2022-09-07T03:29:12.963Z,600
2022-09-07T03:30:15.449Z,600.5
2022-09-07T03:31:18.068Z,600.3
2022-09-07T03:32:20.567Z,600.2
2022-09-07T03:33:23.042Z,599.9
2022-09-07T03:34:25.229Z,600.4
2022-09-07T03:35:27.698Z,600.4
2022-09-07T03:36:29.875Z,600.4
2022-09-07T03:37:32.346Z,600.3
2022-09-07T03:38:34.906Z,599.6
2022-09-07T03:39:37.698Z,600.1
2022-09-07T03:40:39.916Z,600.2
2022-09-07T03:41:41.862Z,600
2022-09-07T03:42:44.333Z,600.6
2022-09-07T03:43:46.249Z,600.7
2022-09-07T03:44:48.177Z,600.1
2022-09-07T03:45:50.703Z,600.2
2022-09-07T03:46:53.181Z,600.6
2022-09-07T03:47:55.668Z,600.1
2022-09-07T03:48:58.148Z,600.1
2022-09-07T03:50:00.075Z,600.6
2022-09-07T03:51:02.572Z,600.3
2022-09-07T03:52:05.054Z,600.6
2022-09-07T03:53:07.522Z,600
2022-09-07T03:54:09.736Z,599.9
2022-09-07T03:55:11.956Z,600.1
2022-09-07T03:56:14.168Z,600.2
2022-09-07T03:57:16.635Z,599.8
2022-09-07T03:58:19.112Z,599.8
2022-09-07T03:59:21.577Z,599.9
2022-09-07T04:00:23.771Z,599.7
2022-09-07T04:01:26.397Z,599.3
2022-09-07T04:02:28.972Z,599.3
2022-09-07T04:03:30.655Z,599.6
2022-09-07T04:04:32.561Z,599.4
2022-09-07T04:05:35.038Z,599.4
2022-09-07T04:06:36.962Z,599.8
2022-09-07T04:07:39.168Z,599.3
2022-09-07T04:08:41.639Z,599.3
2022-09-07T04:09:43.287Z,599.1
2022-09-07T04:10:45.817Z,598.8
2022-09-07T04:11:47.712Z,599.1
2022-09-07T04:12:49.888Z,599.2
2022-09-07T04:13:52.081Z,599.5
2022-09-07T04:14:54.258Z,599.4
2022-09-07T04:15:55.907Z,599.2
2022-09-07T04:16:58.782Z,599.3
2022-09-07T04:18:01.286Z,599.5
2022-09-07T04:19:03.771Z,599.3
2022-09-07T04:20:05.981Z,599.3
2022-09-07T04:21:08.173Z,599.4
2022-09-07T04:22:10.388Z,599.1
2022-09-07T04:23:12.592Z,598.9
2022-09-07T04:24:15.074Z,598.8
2022-09-07T04:25:17.539Z,599.2
2022-09-07T04:26:20.020Z,599
2022-09-07T04:27:22.212Z,598.8
2022-09-07T04:28:24.447Z,598.5
2022-09-07T04:29:26.358Z,598.7
2022-09-07T04:30:29.108Z,598.4
2022-09-07T04:31:31.638Z,598.5
2022-09-07T04:32:34.149Z,598.5
2022-09-07T04:33:36.342Z,597.9
2022-09-07T04:34:38.828Z,597.7
2022-09-07T04:35:41.025Z,597.7
2022-09-07T04:36:43.508Z,598.1
2022-09-07T04:37:45.701Z,598
2022-09-07T04:38:48.177Z,598.3
2022-09-07T04:39:50.758Z,598.6
2022-09-07T04:40:53.010Z,598.5
2022-09-07T04:41:55.212Z,598.9
2022-09-07T04:42:57.705Z,598.9
2022-09-07T04:44:00.197Z,598.9
2022-09-07T04:45:02.675Z,599
2022-09-07T04:46:05.225Z,598.8
2022-09-07T04:47:07.429Z,598.6
2022-09-07T04:48:09.357Z,598.6
2022-09-07T04:49:11.861Z,598.8
2022-09-07T04:50:14.050Z,598.7
2022-09-07T04:51:16.242Z,598.4
2022-09-07T04:52:18.704Z,598.7
2022-09-07T04:53:20.915Z,598.4
2022-09-07T04:54:23.379Z,598.6
2022-09-07T04:55:25.852Z,599
2022-09-07T04:56:27.789Z,598.6
2022-09-07T04:57:30.262Z,598.7
2022-09-07T04:58:32.979Z,599
2022-09-07T04:59:35.162Z,598.9
2022-09-07T05:00:37.631Z,598.6
2022-09-07T05:01:40.570Z,598.5
2022-09-07T05:02:43.359Z,598.3
2022-09-07T05:03:45.626Z,598.1
2022-09-07T05:04:48.114Z,598.4
2022-09-07T05:05:50.590Z,598.5
2022-09-07T05:06:53.062Z,598.2
2022-09-07T05:07:55.532Z,598.7
2022-09-07T05:08:57.708Z,598.3
2022-09-07T05:10:00.206Z,598.5
2022-09-07T05:11:02.409Z,597.8
2022-09-07T05:12:04.606Z,598.3
2022-09-07T05:13:06.814Z,598.3
2022-09-07T05:14:09.016Z,597.6
2022-09-07T05:15:11.493Z,598.1
2022-09-07T05:16:14.345Z,598.1
2022-09-07T05:17:16.585Z,597.8
2022-09-07T05:18:18.799Z,597.9
2022-09-07T05:19:21.279Z,597.6
2022-09-07T05:20:23.746Z,597.7
2022-09-07T05:21:25.678Z,597.4
2022-09-07T05:22:28.174Z,597.2
2022-09-07T05:23:30.659Z,597.1
2022-09-07T05:24:33.136Z,597.3
2022-09-07T05:25:35.623Z,596.7
2022-09-07T05:26:38.098Z,597.1
2022-09-07T05:27:40.587Z,597
2022-09-07T05:28:42.781Z,597.2
2022-09-07T05:31:55.275Z,596.3
2022-09-07T05:32:57.750Z,596
2022-09-07T05:35:04.719Z,596
2022-09-07T05:36:07.202Z,595.6
2022-09-07T05:37:09.407Z,595.7
2022-09-07T05:38:11.875Z,595.6
2022-09-07T05:39:13.527Z,595.5
2022-09-07T05:40:16.525Z,595.7
2022-09-07T05:41:18.366Z,595.6
2022-09-07T05:42:20.835Z,595.2
2022-09-07T05:43:23.042Z,595.2
2022-09-07T05:45:30.499Z,595
2022-09-07T05:46:32.981Z,594.4
2022-09-07T05:47:35.504Z,595.1
2022-09-07T05:48:37.975Z,594.7
2022-09-07T05:49:40.223Z,594.2
2022-09-07T05:50:42.699Z,594
2022-09-07T05:51:45.181Z,593.7
2022-09-07T05:52:47.120Z,594
2022-09-07T05:53:49.333Z,593.8
2022-09-07T05:55:58.024Z,593.7
2022-09-07T05:56:59.960Z,593.8
2022-09-07T05:58:01.894Z,593.4
2022-09-07T05:59:04.128Z,593.4
2022-09-07T06:00:06.330Z,593.3
2022-09-07T06:01:08.808Z,593.4
2022-09-07T06:02:11.471Z,593
2022-09-07T06:03:14.601Z,593.1
2022-09-07T06:04:17.184Z,592.7
2022-09-07T06:05:19.670Z,592.5
2022-09-07T06:06:21.851Z,592.3
2022-09-07T06:07:25.174Z,592.3
2022-09-07T06:08:27.742Z,592.1
2022-09-07T06:11:39.964Z,591.6
2022-09-07T06:13:47.626Z,591.9
2022-09-07T06:14:49.818Z,591.7
2022-09-07T06:15:52.301Z,591.7
2022-09-07T06:16:55.126Z,591.7
2022-09-07T06:17:57.626Z,591.6
2022-09-07T06:18:59.802Z,591
2022-09-07T06:20:01.708Z,591.2
2022-09-07T06:21:03.903Z,591.1
2022-09-07T06:22:06.384Z,590.8
2022-09-07T06:23:08.584Z,590.5
2022-09-07T06:24:11.057Z,590.7
2022-09-07T06:25:13.528Z,590.5
2022-09-07T06:26:15.732Z,590.5
2022-09-07T06:27:18.203Z,590.3
2022-09-07T06:28:20.689Z,590.1
2022-09-07T06:29:23.165Z,590
2022-09-07T06:30:25.678Z,590
2022-09-07T06:31:29.371Z,589.8
2022-09-07T06:33:37.178Z,589.3
2022-09-07T06:34:39.677Z,589.3
2022-09-07T06:35:42.166Z,589.5
2022-09-07T06:36:44.636Z,589.3
2022-09-07T06:37:47.114Z,589.4
2022-09-07T06:38:49.322Z,589.6
2022-09-07T06:39:52.075Z,589.2
2022-09-07T06:41:59.729Z,589.3
2022-09-07T06:43:01.941Z,589.3
2022-09-07T06:44:04.150Z,588.9
2022-09-07T06:45:06.344Z,588.8
2022-09-07T06:47:13.532Z,588.8
2022-09-07T06:48:16.043Z,588.9
2022-09-07T06:49:18.252Z,588.9
2022-09-07T06:50:20.738Z,588.9
2022-09-07T06:51:23.219Z,588.7
2022-09-07T06:52:26.232Z,589.1
2022-09-07T06:55:38.719Z,589.1
2022-09-07T06:56:40.909Z,589.1
2022-09-07T06:57:43.393Z,589.6
2022-09-07T06:58:45.588Z,589.5
2022-09-07T06:59:47.793Z,589.4
2022-09-07T07:00:50.402Z,589.8
2022-09-07T07:01:52.964Z,590
2022-09-07T07:02:55.592Z,590
2022-09-07T07:03:57.574Z,590.1
2022-09-07T07:04:59.510Z,589.4
2022-09-07T07:06:02.009Z,589.1
2022-09-07T07:07:04.503Z,589.3
2022-09-07T07:08:06.721Z,588.9
2022-09-07T07:09:08.967Z,588.6
2022-09-07T07:10:11.173Z,588.7
2022-09-07T07:11:13.665Z,588.5
2022-09-07T07:13:36.534Z,588.8
2022-09-07T07:15:43.731Z,588.4
2022-09-07T07:16:46.550Z,588.6
2022-09-07T07:18:54.072Z,588.9
2022-09-07T07:19:56.269Z,588.8
2022-09-07T07:20:58.187Z,588.9
2022-09-07T07:23:05.678Z,588.5
2022-09-07T07:24:09.944Z,588.6
2022-09-07T07:25:12.439Z,588.5
2022-09-07T07:26:14.924Z,587.9
2022-09-07T07:27:17.400Z,588.1
2022-09-07T07:29:40.033Z,588.6
2022-09-07T07:30:42.255Z,588
2022-09-07T07:31:44.739Z,587.9
2022-09-07T07:32:47.231Z,587.9
2022-09-07T07:33:50.186Z,587.3
2022-09-07T07:34:52.679Z,587.4
2022-09-07T07:35:54.881Z,587.4
2022-09-07T07:36:57.363Z,587.4
2022-09-07T07:39:05.598Z,587.4
2022-09-07T07:42:18.093Z,587.6
2022-09-07T07:43:20.570Z,587.4
2022-09-07T07:44:23.090Z,587.4
2022-09-07T07:46:30.976Z,587.7
2022-09-07T07:47:33.203Z,587.7
2022-09-07T07:48:35.417Z,587.6
2022-09-07T07:49:38.008Z,587.4
2022-09-07T07:50:40.487Z,587.3
2022-09-07T07:53:52.734Z,587.6
2022-09-07T07:54:54.667Z,587.1
2022-09-07T07:55:56.901Z,587.3
2022-09-07T07:56:59.396Z,587.2
2022-09-07T07:58:01.899Z,587.2
2022-09-07T07:59:04.088Z,587.4
2022-09-07T08:00:06.581Z,587.3
2022-09-07T08:01:09.336Z,587.7
2022-09-07T08:02:11.834Z,587.5
2022-09-07T08:03:14.064Z,587.7
2022-09-07T08:04:16.545Z,587.7
2022-09-07T08:05:19.137Z,587.9
2022-09-07T08:06:21.362Z,588
2022-09-07T08:07:23.832Z,587.9
2022-09-07T08:08:26.351Z,588.3
2022-09-07T08:09:28.857Z,588.3
2022-09-07T08:10:31.335Z,588.5
2022-09-07T08:11:33.542Z,588
2022-09-07T08:12:35.744Z,588.1
2022-09-07T08:13:37.935Z,588
2022-09-07T08:14:40.434Z,588
2022-09-07T08:15:42.649Z,588.2
2022-09-07T08:16:45.683Z,588
2022-09-07T08:17:47.912Z,588
2022-09-07T08:18:50.386Z,588.2
2022-09-07T08:19:52.313Z,588.4
2022-09-07T08:20:54.995Z,588.2
2022-09-07T08:21:57.197Z,588.2
2022-09-07T08:22:59.137Z,588.2
2022-09-07T08:24:01.394Z,588.4
2022-09-07T08:25:03.708Z,587.8
2022-09-07T08:26:06.182Z,588.2
2022-09-07T08:27:08.111Z,588.1
2022-09-07T08:28:10.594Z,588
2022-09-07T08:29:12.859Z,588.1
2022-09-07T08:30:15.341Z,588.3
2022-09-07T08:31:18.110Z,588.4
2022-09-07T08:32:20.587Z,588.7
2022-09-07T08:33:23.066Z,589
2022-09-07T08:34:25.261Z,588.8
2022-09-07T08:35:27.459Z,588.9
2022-09-07T08:36:30.238Z,588.9
2022-09-07T08:37:32.776Z,589.4
2022-09-07T08:38:34.697Z,589.5
2022-09-07T08:39:36.936Z,589.5
2022-09-07T08:40:39.200Z,589.2
2022-09-07T08:41:41.420Z,589.3
2022-09-07T08:42:43.638Z,589.8
2022-09-07T08:44:51.166Z,589.9
2022-09-07T08:45:53.643Z,589.9
2022-09-07T08:46:56.353Z,590.1
2022-09-07T08:47:58.841Z,590.5
2022-09-07T08:49:00.744Z,590
2022-09-07T08:50:02.997Z,590
2022-09-07T08:51:05.475Z,590.1
2022-09-07T08:52:08.045Z,590.4
2022-09-07T08:53:10.534Z,590.1
2022-09-07T08:54:12.998Z,590.1
2022-09-07T08:55:15.207Z,589.9
2022-09-07T08:56:17.435Z,589.9
2022-09-07T08:59:29.543Z,590.2
2022-09-07T09:00:32.039Z,590.7
2022-09-07T09:01:37.621Z,590.6
2022-09-07T09:05:55.813Z,590.5
2022-09-07T09:06:59.385Z,590.6
2022-09-07T09:08:02.184Z,590.5
2022-09-07T09:09:04.653Z,590.5
2022-09-07T09:10:06.870Z,589.8
2022-09-07T09:11:09.342Z,590.2
2022-09-07T09:12:11.548Z,590.4
2022-09-07T09:13:14.015Z,591.1
2022-09-07T09:14:15.930Z,590.6
2022-09-07T09:15:18.469Z,591
2022-09-07T09:16:21.542Z,591.4
2022-09-07T09:17:24.049Z,591.4
2022-09-07T09:18:26.742Z,591.3
2022-09-07T09:19:28.944Z,591.3
2022-09-07T09:20:30.871Z,591.6
2022-09-07T09:21:33.066Z,591.8
2022-09-07T09:22:35.269Z,591.4
2022-09-07T09:23:37.954Z,591.5
2022-09-07T09:24:40.466Z,591.1
2022-09-07T09:25:42.663Z,591.4
2022-09-07T09:26:45.416Z,590.7
2022-09-07T09:27:47.642Z,591.3
2022-09-07T09:28:49.855Z,591.3
2022-09-07T09:29:51.780Z,591.5
2022-09-07T09:30:54.205Z,591.5
2022-09-07T09:31:56.722Z,591.4
2022-09-07T09:32:59.195Z,591.2
2022-09-07T09:34:01.407Z,591.4
2022-09-07T09:35:03.927Z,591.4
2022-09-07T09:36:06.399Z,591.4
2022-09-07T09:37:08.619Z,591.5
2022-09-07T09:38:10.836Z,591.7
2022-09-07T09:39:13.131Z,591.7
2022-09-07T09:40:16.045Z,591.7
2022-09-07T09:41:18.541Z,591.9
2022-09-07T09:42:20.732Z,591.9
2022-09-07T09:43:23.232Z,591.6
2022-09-07T09:44:25.704Z,591.9
2022-09-07T09:45:28.816Z,591.8
2022-09-07T09:46:30.738Z,591.7
2022-09-07T09:47:34.705Z,591.3
2022-09-07T09:48:36.092Z,591.8
2022-09-07T09:49:38.596Z,592.1
2022-09-07T09:53:56.065Z,592
2022-09-07T09:56:03.620Z,592.4
2022-09-07T09:57:05.813Z,592.6
2022-09-07T10:04:41.595Z,592
2022-09-07T10:05:44.070Z,591.9
2022-09-07T10:06:46.564Z,592.1
2022-09-07T10:07:48.759Z,592.1
2022-09-07T10:08:51.233Z,592.2
2022-09-07T10:09:53.700Z,592.6
2022-09-07T10:10:56.196Z,592.7
2022-09-07T10:13:03.233Z,592.8
2022-09-07T10:14:05.426Z,592.5
2022-09-07T10:15:07.904Z,592.5
2022-09-07T10:16:10.561Z,592.6
2022-09-07T10:17:13.084Z,592.7
2022-09-07T10:18:15.556Z,592.9
2022-09-07T10:19:17.488Z,592.9
2022-09-07T10:20:19.964Z,592.7
2022-09-07T10:21:22.443Z,592.8
2022-09-07T10:22:24.640Z,592.2
2022-09-07T10:23:27.127Z,592.5
2022-09-07T10:24:29.603Z,592.3
2022-09-07T10:25:31.806Z,592.4
2022-09-07T10:26:34.036Z,592.2
2022-09-07T10:27:36.267Z,592.4
2022-09-07T10:29:43.576Z,591.9
2022-09-07T10:30:46.403Z,592
2022-09-07T10:31:48.637Z,592.1
2022-09-07T10:32:51.125Z,592.5
2022-09-07T10:34:58.221Z,592.1
2022-09-07T10:36:00.723Z,592.4
2022-09-07T10:37:03.216Z,592.3
2022-09-07T10:38:05.409Z,592.7
2022-09-07T10:39:07.337Z,592.8
2022-09-07T10:40:09.576Z,592.9
2022-09-07T10:41:11.820Z,592.6
2022-09-07T10:42:14.319Z,592.9
2022-09-07T10:44:21.786Z,593.2
2022-09-07T10:45:24.386Z,593
2022-09-07T10:47:32.212Z,593.6
2022-09-07T10:48:34.799Z,593.6
2022-09-07T10:49:37.498Z,594.2
2022-09-07T10:50:39.993Z,595
2022-09-07T10:51:41.630Z,594.6
2022-09-07T10:52:44.107Z,595.1
2022-09-07T10:54:29.317Z,595.1
2022-09-07T10:54:54.723Z,595.1
2022-09-07T10:55:57.284Z,595.4
2022-09-07T10:56:59.798Z,595.7
2022-09-07T10:58:01.739Z,595.9
2022-09-07T10:59:05.992Z,596
2022-09-07T11:00:12.121Z,596.4
2022-09-07T11:01:15.129Z,596.8
2022-09-07T11:02:17.991Z,596.6
2022-09-07T11:04:24.991Z,596.7
2022-09-07T11:06:31.924Z,597
2022-09-07T11:07:33.864Z,596.7
2022-09-07T11:09:41.078Z,597
2022-09-07T11:10:43.300Z,597.1
2022-09-07T11:12:50.500Z,597.5
2022-09-07T11:14:58.001Z,597.6
2022-09-07T11:16:01.033Z,598.2
2022-09-07T11:17:04.120Z,598.2
2022-09-07T11:18:06.088Z,598.1
2022-09-07T11:20:13.316Z,598.5
2022-09-07T11:22:22.463Z,598.8
2022-09-07T11:23:24.952Z,599.3
2022-09-07T11:24:26.595Z,599.4
2022-09-07T11:26:34.101Z,600.1
2022-09-07T11:27:36.598Z,599.9
2022-09-07T11:28:38.817Z,599.8
2022-09-07T11:29:41.058Z,599.7
2022-09-07T11:30:44.022Z,599.3
2022-09-07T11:31:46.531Z,599.7
2022-09-07T11:32:49.118Z,599.7
2022-09-07T11:34:56.478Z,600.3
2022-09-07T11:35:58.974Z,600.1
2022-09-07T11:37:01.191Z,599.8
2022-09-07T11:38:03.666Z,600
2022-09-07T11:39:06.165Z,600.2
2022-09-07T11:40:09.427Z,600.5
2022-09-07T11:41:11.706Z,600.3
2022-09-07T11:43:19.233Z,600.7
2022-09-07T11:44:22.338Z,600.6
2022-09-07T11:45:24.842Z,600.5
2022-09-07T11:46:27.519Z,600.4
2022-09-07T11:47:30.034Z,600.7
2022-09-07T11:48:34.694Z,600.9
2022-09-07T11:49:37.288Z,600.7
2022-09-07T11:50:39.490Z,600.6
2022-09-07T11:51:41.694Z,600.9
2022-09-07T11:52:43.887Z,600.8
2022-09-07T11:53:46.105Z,600.8
2022-09-07T11:54:48.313Z,601.2
2022-09-07T11:55:50.793Z,601.2
2022-09-07T11:56:52.720Z,601.2
2022-09-07T11:59:00.201Z,600.7
2022-09-07T12:00:02.681Z,600.8
2022-09-07T12:01:05.176Z,600.9
2022-09-07T12:02:08.086Z,601.3
2022-09-07T12:03:10.843Z,601.2
2022-09-07T12:05:18.419Z,600.9
2022-09-07T12:06:20.896Z,601.5
2022-09-07T12:07:23.380Z,601.6
2022-09-07T12:08:25.944Z,601.4
2022-09-07T12:09:28.148Z,601.7
2022-09-07T12:10:30.625Z,602
2022-09-07T12:11:32.837Z,602.1
2022-09-07T12:12:35.059Z,602.5
2022-09-07T12:13:37.267Z,602.1
2022-09-07T12:14:39.460Z,602.4
2022-09-07T12:15:42.279Z,601.8
2022-09-07T12:16:44.826Z,602.3
2022-09-07T12:17:47.362Z,602.4
2022-09-07T12:18:49.632Z,602.5
2022-09-07T12:19:52.203Z,602.2
2022-09-07T12:20:54.799Z,602
2022-09-07T12:21:57.287Z,602.5
2022-09-07T12:24:04.205Z,602.9
2022-09-07T12:25:06.686Z,603.2
2022-09-07T12:26:08.601Z,603
2022-09-07T12:27:10.798Z,602.8
2022-09-07T12:28:12.749Z,603.2
2022-09-07T12:29:15.267Z,603.1
2022-09-07T12:30:17.764Z,602.9
2022-09-07T12:31:21.113Z,603.3
2022-09-07T12:33:28.902Z,603.2
2022-09-07T12:34:31.371Z,603.7
2022-09-07T12:35:33.580Z,603.6
2022-09-07T12:36:35.990Z,603.2
2022-09-07T12:37:37.907Z,603.5
2022-09-07T12:38:40.390Z,603.9
2022-09-07T12:39:43.175Z,604.4
2022-09-07T12:40:45.149Z,603.5
2022-09-07T12:41:50.129Z,604.1
2022-09-07T12:42:52.641Z,604.3
2022-09-07T12:43:55.131Z,604.4
2022-09-07T12:44:57.601Z,604.4
2022-09-07T12:46:00.379Z,604.6
2022-09-07T12:47:02.638Z,604.8
2022-09-07T12:48:06.331Z,604.3
2022-09-07T12:49:08.545Z,604.9
2022-09-07T12:50:12.132Z,604.9
2022-09-07T12:51:15.908Z,604.8
2022-09-07T12:52:18.712Z,604.9
2022-09-07T12:53:21.236Z,605.1
2022-09-07T12:54:23.710Z,605
2022-09-07T12:56:31.197Z,604.7
2022-09-07T12:57:33.422Z,605.2
2022-09-07T12:58:35.916Z,605.2
2022-09-07T12:59:38.123Z,605.1
2022-09-07T13:00:41.527Z,605.2
2022-09-07T13:01:45.084Z,605.6
2022-09-07T13:02:48.128Z,605.5
2022-09-07T13:03:53.664Z,605.9
2022-09-07T13:04:55.865Z,605.9
2022-09-07T13:05:58.107Z,606.2
2022-09-07T13:09:10.797Z,606.3
2022-09-07T13:10:12.999Z,606.4
2022-09-07T13:11:15.476Z,606.3
2022-09-07T13:14:27.951Z,606.9
2022-09-07T13:15:30.683Z,606.9
2022-09-07T13:17:39.001Z,607.1
2022-09-07T13:18:41.481Z,607
2022-09-07T13:19:43.717Z,607.2
2022-09-07T13:20:46.181Z,607
2022-09-07T13:21:48.378Z,607.1
2022-09-07T13:22:50.558Z,607.3
2022-09-07T13:23:54.196Z,607.3
2022-09-07T13:24:56.588Z,607.4
2022-09-07T13:25:59.064Z,608.1
2022-09-07T13:27:01.263Z,607.8
2022-09-07T13:28:03.771Z,608.6
2022-09-07T13:29:06.289Z,608.1
2022-09-07T13:30:09.300Z,608.1
2022-09-07T13:31:13.059Z,608.5
2022-09-07T13:32:16.396Z,608.6
2022-09-07T13:33:18.884Z,608.3
2022-09-07T13:34:21.079Z,608.7
2022-09-07T13:35:23.593Z,608.6
2022-09-07T13:36:26.193Z,608.7
2022-09-07T13:37:29.995Z,608.6
2022-09-07T13:38:32.194Z,608.7
2022-09-07T13:39:34.981Z,608.5
2022-09-07T13:40:37.674Z,608.8
2022-09-07T13:41:39.881Z,609.2
2022-09-07T13:42:42.380Z,609.3
2022-09-07T13:43:44.630Z,609.2
2022-09-07T13:44:47.110Z,609.2
2022-09-07T13:45:49.451Z,608.9
2022-09-07T13:46:51.963Z,609.1
2022-09-07T13:47:54.439Z,609.5
2022-09-07T13:48:57.014Z,609.3
2022-09-07T13:49:59.504Z,609.3
2022-09-07T13:51:01.766Z,610.1
2022-09-07T13:52:04.242Z,610.3
2022-09-07T13:53:06.718Z,610
2022-09-07T13:54:09.203Z,610.1
2022-09-07T13:55:11.672Z,610.4
2022-09-07T13:56:14.037Z,610.5
2022-09-07T13:57:16.504Z,610.2
2022-09-07T13:58:18.722Z,610.4
2022-09-07T13:59:21.196Z,610.2
2022-09-07T14:00:23.112Z,611
2022-09-07T14:01:25.840Z,610.9
2022-09-07T14:02:28.309Z,610.8
2022-09-07T14:03:31.507Z,611.3
2022-09-07T14:04:33.781Z,611.6
2022-09-07T14:05:35.978Z,611
2022-09-07T14:06:38.473Z,611.9
2022-09-07T14:07:40.968Z,611.8
2022-09-07T14:08:43.174Z,612.2
2022-09-07T14:09:45.112Z,612.3
2022-09-07T14:10:47.594Z,612.9
2022-09-07T14:11:50.162Z,612.8
2022-09-07T14:12:52.687Z,613.2
2022-09-07T14:13:55.183Z,613.6
2022-09-07T14:14:57.405Z,613.6
2022-09-07T14:15:59.893Z,613.6
2022-09-07T14:17:02.942Z,614.2
2022-09-07T14:18:04.865Z,614.3
2022-09-07T14:19:07.339Z,613.9
2022-09-07T14:20:09.608Z,614
2022-09-07T14:21:12.082Z,613.6
2022-09-07T14:22:13.749Z,613.8
2022-09-07T14:23:16.219Z,614
2022-09-07T14:24:18.705Z,613.8
2022-09-07T14:25:20.638Z,613.7
2022-09-07T14:26:23.159Z,614.1
2022-09-07T14:27:25.753Z,613.9
2022-09-07T14:28:27.941Z,613.8
2022-09-07T14:29:30.424Z,614.1
2022-09-07T14:30:33.415Z,614
2022-09-07T14:31:36.742Z,614
2022-09-07T14:32:39.216Z,614.2
2022-09-07T14:34:46.775Z,614.1
2022-09-07T14:35:49.310Z,614
2022-09-07T14:36:51.502Z,614.3
2022-09-07T14:37:54.740Z,613.9
2022-09-07T14:40:02.770Z,614
2022-09-07T14:41:05.294Z,614.2
2022-09-07T14:42:08.606Z,614.1
2022-09-07T14:43:11.217Z,614.1